Lake Worth, FL

9:45 AM EDT en Septiembre 01, 2014 (GMT -0400)
Suburban Lake Worth/Lantana | Change Station
CLOSE
Current Station
Estación meteorológica personal
Location: Lake Worth, FL
Altura: 21 ft
Estaciones meteorológicas cercanas

Alt 21 ft 26.60 °N, 80.16 °W | Updated 0 second ago

Parcialmente nublado
Parcialmente nublado
86.2 ° F
Sensación térmica 98 ° F
N
3.0
Viento Variable Viento desde SE
Gusts 8.0 mph

Hoy
Alta -- | Baja -- ° F
--% Posibilidad de precipitaciones
Ayer
Alta -- | Baja -- ° F
Precip. -- pul
7:00 AM 7:40 PM
Creciente, 41% visible
Presión 30.08 pul
Visibilidad 10.0 Millas
Nubes Nubes dispersas 2800 ft
Índice de calor 98 ° F
Punto de rocío 77 ° F
Humedad 75%
Precipitaciones 0.00 pul
Espesor de la nieve No disponible.
UV 2 de una escala de 12
Polen 5.20 de una escala de 12
PM2.5 Moderada
Flu Activity No disponible.
METAR KPBI 011253Z 11009KT 10SM SCT028 29/23 A3008 RMK AO2 SLP185 T02940233 $

More Conditions Fewer Conditions

Presión 30.08 pul
Visibilidad 10.0 Millas
Nubes Nubes dispersas 2800 ft
Índice de calor 98 ° F
Punto de rocío 77 ° F
Humedad 75%
Precipitaciones 0.00 pul
Espesor de la nieve No disponible.
UV 2 de una escala de 12
Polen 5.20 de una escala de 12
PM2.5 Moderada
Flu Activity No disponible.
METAR KPBI 011253Z 11009KT 10SM SCT028 29/23 A3008 RMK AO2 SLP185 T02940233 $

More Conditions Fewer Conditions

10-Day Weather Forecast

Almanac

Astronomía

Sep. 01, 2014 Salida Puesta
Hora real 7:00 AM EDT 7:40 PM EDT
Crepúsculo civil 6:36 AM EDT 8:04 PM EDT
Crepúsculo náutico 6:09 AM EDT 8:31 PM EDT
Crepúsculo astronómico 5:40 AM EDT 8:59 PM EDT
Luna 1:07 PM EDT Sin puesta de luna
Horas de luz 13h 27m
Horas de luz
12h 40m
Tomorrow will be 1m 31s shorter.
Creciente, 41% of the Moon is Illuminated
Hoy
Creciente
Sep 2
Cuarto creciente
Sep 8
Luna llena
Sep 15
Cuarto menguante
Sep 24
Nueva

Extremos de hoy

Máximos del estado Bajos del estado

Community

WunderPhotos

Upload Photos

1,749,222 ¡fotos cargadas!

Nearby

Calidad del aire

  Calidad del aire Índice AQ Contaminante
Ayer Moderada
PM2.5
Ayer Buena
OZONE
Real Moderada
PM2.5
Lunes Buena
OZONE
Lunes Buena
PM2.5

Grosos de nieve

Estación Profundido Altura
No tenemos constancia de nieve nueva.

Actividad de terremotos

Ciudad Distance Mag. Tiempo y dato
No hay informes recientes de la actividad sísmica.
Magnitud mínima muestra es 2,5.

Temperaturas de aguas costeras

Lugar Temperatura
Lake Worth, FL 87.1 ° F
Virginia Key, FL 86.0 ° F

Estaciones meteorológicas cercanas